Time;durP1;ratioP1;P1;durP2;ratioP2;P2;SDS_P1;SDS_P2;PMS_P1;PMS_P2;Temp;Humidity;BMP_temperature;BMP_pressure;BME280_temperature;BME280_humidity;BME280_pressure;Samples;Min_cycle;Max_cycle;Signal;HPM_P1;HPM_P2
2022/01/06 00:02:29;;;;;;;5.57;0.20;;;;;;;0.35;49.02;101057.91;5028377;28;20132;-75
2022/01/06 00:04:55;;;;;;;1.58;0.17;;;;;;;0.28;49.06;101057.88;5029536;28;22485;-75
2022/01/06 00:07:21;;;;;;;1.92;0.10;;;;;;;0.14;49.36;101066.34;5031065;28;20060;-75
2022/01/06 00:09:48;;;;;;;0.77;0.00;;;;;;;-0.03;49.92;101067.09;5030919;28;20044;-72
2022/01/06 00:12:16;;;;;;;0.60;0.10;;;;;;;-0.11;49.85;101073.03;5014121;28;20044;-73
2022/01/06 00:15:05;;;;;;;4.00;0.30;;;;;;;-0.18;49.86;101072.97;5014044;28;20082;-73
2022/01/06 00:25:30;;;;;;;1.27;0.30;;;;;;;-0.41;51.07;101095.06;5029433;28;20520;-72
2022/01/06 00:27:56;;;;;;;1.58;0.20;;;;;;;-0.49;50.90;101105.25;5019088;28;20256;-72
2022/01/06 00:30:21;;;;;;;3.38;0.17;;;;;;;-0.47;51.21;101107.84;5020741;28;20025;-72
2022/01/06 00:32:47;;;;;;;1.02;0.10;;;;;;;-0.54;51.10;101112.06;5020363;28;20068;-74
2022/01/06 00:35:12;;;;;;;2.03;0.47;;;;;;;-0.59;51.34;101111.16;5015928;28;20048;-74
2022/01/06 00:37:38;;;;;;;2.45;0.55;;;;;;;-0.47;51.55;101111.25;5010820;28;20470;-74
2022/01/06 00:40:06;;;;;;;5.40;0.20;;;;;;;-0.38;51.41;101110.50;5013162;28;20033;-74
2022/01/06 00:42:32;;;;;;;1.38;0.30;;;;;;;-0.40;51.90;101118.16;5014109;28;20046;-74
2022/01/06 00:45:00;;;;;;;2.33;0.20;;;;;;;-0.28;51.12;101122.59;5027810;28;20077;-75
2022/01/06 00:47:25;;;;;;;2.33;0.20;;;;;;;-0.33;51.11;101124.22;5030066;28;20124;-76
2022/01/06 00:49:51;;;;;;;3.63;0.45;;;;;;;-0.39;51.19;101129.34;5028394;28;20170;-76
2022/01/06 00:52:16;;;;;;;2.20;0.25;;;;;;;-0.48;51.67;101139.47;5025294;28;20451;-73
2022/01/06 00:54:42;;;;;;;3.95;0.20;;;;;;;-0.44;51.53;101139.53;5018057;28;20037;-73
2022/01/06 00:57:10;;;;;;;2.63;0.60;;;;;;;-0.55;51.93;101138.56;5023518;28;20041;-73
2022/01/06 00:59:36;;;;;;;4.03;0.32;;;;;;;-0.45;51.83;101145.53;5017634;28;20064;-73
2022/01/06 01:02:01;;;;;;;3.38;0.50;;;;;;;-0.53;52.29;101146.28;5028291;28;20136;-73
2022/01/06 01:04:27;;;;;;;2.78;0.20;;;;;;;-0.39;52.53;101147.31;5029427;28;20033;-73
2022/01/06 01:06:52;;;;;;;1.55;0.20;;;;;;;-0.28;52.43;101148.28;5014119;28;20507;-73
2022/01/06 01:09:17;;;;;;;7.68;0.85;;;;;;;-0.23;52.23;101156.88;5015361;28;20477;-73
2022/01/06 01:11:43;;;;;;;4.93;0.45;;;;;;;-0.29;52.31;101155.94;5013542;28;20124;-72
2022/01/06 01:14:27;;;;;;;2.47;0.38;;;;;;;-0.18;52.33;101160.34;5011961;28;20068;-72
2022/01/06 01:16:57;;;;;;;5.10;0.45;;;;;;;-0.06;52.34;101162.13;5027517;28;20411;-72
2022/01/06 01:19:30;;;;;;;6.28;0.85;;;;;;;-0.19;52.58;101156.06;5012142;28;20193;-71
2022/01/06 01:21:57;;;;;;;2.35;0.93;;;;;;;-0.18;52.72;101162.91;5004253;28;20475;-73
2022/01/06 01:24:25;;;;;;;2.97;0.43;;;;;;;-0.06;52.65;101161.28;5017449;28;20036;-75
2022/01/06 01:26:51;;;;;;;3.40;0.63;;;;;;;0.04;52.37;101163.97;5028100;28;20048;-72
2022/01/06 01:29:18;;;;;;;4.82;0.38;;;;;;;0.09;52.33;101170.84;5037664;28;20045;-73
2022/01/06 01:31:52;;;;;;;4.40;0.30;;;;;;;0.00;52.54;101169.91;5034023;28;20108;-72
2022/01/06 01:34:23;;;;;;;1.77;0.28;;;;;;;0.09;52.64;101192.25;5035896;28;20048;-73
2022/01/06 01:36:49;;;;;;;6.00;0.20;;;;;;;-0.13;53.14;101179.22;5031066;28;20037;-73
2022/01/06 01:39:15;;;;;;;5.43;0.17;;;;;;;-0.11;53.13;101178.38;5033344;28;20488;-72
2022/01/06 01:41:43;;;;;;;4.35;0.15;;;;;;;-0.04;52.86;101183.56;5025859;28;20076;-73
2022/01/06 01:44:13;;;;;;;9.30;0.77;;;;;;;-0.00;53.21;101179.34;5016089;28;20151;-73
2022/01/06 01:46:46;;;;;;;1.05;0.10;;;;;;;0.24;52.69;101182.13;5020080;28;20040;-72
2022/01/06 01:51:45;;;;;;;3.58;0.20;;;;;;;0.50;52.21;101191.72;5032173;28;20123;-72
2022/01/06 01:54:11;;;;;;;2.95;0.25;;;;;;;0.63;52.01;101197.81;5022968;28;20051;-72
2022/01/06 01:56:37;;;;;;;0.68;0.03;;;;;;;0.68;51.55;101203.88;5033304;28;20038;-73
2022/01/06 01:59:03;;;;;;;5.60;0.57;;;;;;;0.66;51.74;101214.13;5034080;28;20614;-72
2022/01/06 02:01:31;;;;;;;3.60;0.22;;;;;;;0.60;52.02;101224.38;5034972;28;20363;-72
2022/01/06 02:04:01;;;;;;;4.18;0.17;;;;;;;0.54;52.48;101228.63;5032361;28;20033;-72
2022/01/06 02:06:28;;;;;;;4.35;0.82;;;;;;;0.55;51.94;101254.34;5035933;28;20040;-72
2022/01/06 02:08:54;;;;;;;4.97;0.28;;;;;;;0.17;53.50;101254.03;5032707;28;20491;-72
2022/01/06 02:11:21;;;;;;;7.30;0.50;;;;;;;0.68;52.71;101274.19;5036352;28;20037;-72
2022/01/06 02:13:47;;;;;;;2.20;0.13;;;;;;;0.66;52.28;101273.31;5015404;28;20656;-71
2022/01/06 02:16:12;;;;;;;11.98;0.57;;;;;;;0.83;52.14;101257.97;5033183;28;20067;-72
2022/01/06 02:18:41;;;;;;;3.97;0.25;;;;;;;0.90;52.01;101261.44;5031904;28;20132;-73
2022/01/06 02:21:06;;;;;;;2.80;0.10;;;;;;;0.90;51.94;101269.16;5036920;28;20036;-74
2022/01/06 02:23:32;;;;;;;4.35;0.47;;;;;;;0.79;51.61;101261.41;5033125;28;20057;-73
2022/01/06 02:25:57;;;;;;;1.98;0.10;;;;;;;0.65;51.96;101273.28;5034689;28;20039;-73
2022/01/06 02:28:22;;;;;;;3.67;0.80;;;;;;;0.58;51.98;101267.22;5035473;28;20052;-73
2022/01/06 02:30:51;;;;;;;5.38;0.10;;;;;;;0.44;53.09;101274.84;5033944;28;20357;-73
2022/01/06 02:33:17;;;;;;;1.92;0.20;;;;;;;0.33;53.42;101280.75;5035471;28;20048;-73
2022/01/06 02:35:44;;;;;;;4.47;0.10;;;;;;;0.06;54.63;101274.50;5034079;28;20032;-75
2022/01/06 02:38:11;;;;;;;3.25;0.13;;;;;;;0.31;53.84;101285.88;5023622;28;20115;-76
2022/01/06 02:40:37;;;;;;;3.63;0.43;;;;;;;0.18;54.53;101277.16;5027931;28;20033;-75
2022/01/06 02:43:06;;;;;;;5.32;0.32;;;;;;;0.30;54.20;101280.69;5023755;28;20057;-76
2022/01/06 02:45:31;;;;;;;8.68;0.80;;;;;;;0.04;55.54;101273.63;5029672;28;20493;-76
2022/01/06 02:47:58;;;;;;;5.53;0.60;;;;;;;0.30;54.35;101283.28;5029613;28;20139;-75
2022/01/06 02:50:25;;;;;;;0.30;0.05;;;;;;;0.34;54.08;101282.47;5018775;28;20033;-76
2022/01/06 02:52:50;;;;;;;4.32;0.10;;;;;;;0.07;55.29;101273.63;5011596;28;20041;-74
2022/01/06 02:55:16;;;;;;;3.30;0.88;;;;;;;0.22;54.75;101273.78;5031048;28;20036;-74
2022/01/06 02:57:44;;;;;;;2.20;0.13;;;;;;;-0.07;55.63;101276.06;5029311;28;20041;-74
2022/01/06 03:00:17;;;;;;;8.80;0.20;;;;;;;-0.03;55.27;101271.84;5030784;28;20503;-74
2022/01/06 03:02:46;;;;;;;1.20;0.00;;;;;;;0.08;54.60;101280.53;5030229;28;20137;-74
2022/01/06 03:05:16;;;;;;;6.18;0.10;;;;;;;0.11;54.35;101277.97;5030816;28;20041;-74
2022/01/06 03:07:44;;;;;;;11.02;0.10;;;;;;;-0.04;55.06;101288.94;5020887;28;20492;-74
2022/01/06 03:10:13;;;;;;;2.58;0.17;;;;;;;-0.08;55.03;101287.22;5021586;28;20041;-74
2022/01/06 03:12:41;;;;;;;3.72;0.10;;;;;;;-0.00;54.87;101282.13;5012799;28;20048;-74
2022/01/06 03:15:12;;;;;;;3.53;0.43;;;;;;;0.07;54.94;101289.06;5029191;28;20313;-74
2022/01/06 03:17:40;;;;;;;1.75;0.10;;;;;;;0.17;54.58;101290.88;5014196;28;20049;-74
2022/01/06 03:20:13;;;;;;;5.75;0.30;;;;;;;0.01;54.81;101307.88;5032356;28;20029;-74
2022/01/06 03:22:39;;;;;;;10.60;0.30;;;;;;;-0.07;55.10;101300.91;5028773;28;20040;-74
2022/01/06 03:25:06;;;;;;;6.20;0.20;;;;;;;-0.03;54.85;101294.97;5031156;28;20045;-74
2022/01/06 03:27:32;;;;;;;5.20;0.45;;;;;;;0.03;54.71;101302.72;5029750;28;20538;-74
2022/01/06 03:29:57;;;;;;;2.70;0.17;;;;;;;0.02;54.24;101309.56;5030941;28;20953;-74
2022/01/06 03:32:23;;;;;;;10.00;0.47;;;;;;;-0.10;54.06;101311.13;5029349;28;20045;-74
2022/01/06 03:34:48;;;;;;;2.60;0.30;;;;;;;-0.16;55.07;101312.81;5019657;28;20029;-74
2022/01/06 03:37:17;;;;;;;4.00;0.20;;;;;;;-0.07;54.90;101311.19;5028919;28;20072;-74
2022/01/06 03:39:44;;;;;;;5.18;0.40;;;;;;;-0.01;54.42;101319.84;5013948;28;20447;-74
2022/01/06 03:42:12;;;;;;;2.83;0.43;;;;;;;-0.03;54.36;101313.81;5016896;28;20290;-74
2022/01/06 03:44:40;;;;;;;4.88;0.68;;;;;;;-0.01;54.34;101322.41;5030511;28;20048;-74
2022/01/06 03:47:09;;;;;;;4.35;0.15;;;;;;;0.02;54.04;101330.13;5029315;28;20049;-74
2022/01/06 03:49:37;;;;;;;18.07;0.53;;;;;;;-0.14;54.16;101316.25;5030384;28;20337;-74
2022/01/06 03:52:03;;;;;;;2.35;0.10;;;;;;;-0.15;54.24;101319.69;5018460;28;20278;-75
2022/01/06 03:54:29;;;;;;;5.38;1.33;;;;;;;-0.20;54.12;101320.47;5031256;28;20120;-75
2022/01/06 03:56:56;;;;;;;5.38;0.10;;;;;;;-0.28;54.09;101330.66;5017407;28;20171;-75
2022/01/06 03:59:24;;;;;;;1.02;0.20;;;;;;;-0.25;53.78;101328.09;5015844;28;20030;-75
2022/01/06 04:01:49;;;;;;;1.63;0.13;;;;;;;-0.23;53.83;101333.28;5024859;28;20029;-76
2022/01/06 04:04:15;;;;;;;6.38;0.77;;;;;;;-0.20;54.26;101336.72;5028036;28;20040;-75
2022/01/06 04:06:41;;;;;;;4.50;0.22;;;;;;;-0.19;54.93;101335.91;5017990;28;20542;-76
2022/01/06 04:09:06;;;;;;;1.73;0.30;;;;;;;-0.13;54.78;101343.66;5022559;28;20052;-75
2022/01/06 04:11:32;;;;;;;4.18;0.22;;;;;;;0.07;54.73;101355.88;5030789;28;20110;-76
2022/01/06 04:13:58;;;;;;;2.20;0.22;;;;;;;0.15;54.52;101367.13;5018957;28;20040;-76
2022/01/06 04:16:27;;;;;;;6.72;0.30;;;;;;;0.14;54.49;101351.69;5022146;28;20032;-76
2022/01/06 04:18:57;;;;;;;2.58;0.43;;;;;;;0.15;54.40;101359.41;5027996;28;20327;-76
2022/01/06 04:21:22;;;;;;;10.40;0.40;;;;;;;0.16;54.39;101355.97;5014633;28;20040;-76
2022/01/06 04:23:48;;;;;;;7.05;0.52;;;;;;;0.15;54.08;101359.41;5026177;28;20140;-76
2022/01/06 04:26:17;;;;;;;9.65;0.85;;;;;;;0.08;54.07;101355.06;5030210;28;20041;-76
2022/01/06 04:28:42;;;;;;;8.38;0.57;;;;;;;0.04;53.85;101356.72;5002426;28;20466;-76
2022/01/06 04:31:09;;;;;;;3.05;0.40;;;;;;;-0.04;53.62;101357.47;5030206;28;20106;-74
2022/01/06 04:33:35;;;;;;;4.63;0.95;;;;;;;-0.07;53.90;101368.56;5027051;28;20044;-75
2022/01/06 04:36:04;;;;;;;9.38;0.47;;;;;;;-0.10;54.10;101371.13;5030317;28;20040;-76
2022/01/06 04:38:29;;;;;;;8.07;0.68;;;;;;;-0.07;53.97;101378.00;5009220;28;20419;-76
2022/01/06 04:40:56;;;;;;;12.63;0.65;;;;;;;-0.15;54.27;101376.22;5029002;28;20041;-76
2022/01/06 04:43:24;;;;;;;4.85;0.40;;;;;;;-0.07;54.07;101378.00;5009758;28;20107;-76
2022/01/06 04:45:50;;;;;;;6.55;0.50;;;;;;;-0.13;53.62;101378.78;5002624;28;20029;-76
2022/01/06 04:48:18;;;;;;;8.23;0.65;;;;;;;-0.28;54.36;101376.91;5021512;28;20063;-76
2022/01/06 04:50:43;;;;;;;7.70;0.65;;;;;;;-0.19;53.96;101377.00;4996375;28;20033;-75
2022/01/06 04:53:11;;;;;;;4.10;0.77;;;;;;;-0.19;53.64;101384.72;5012897;28;20045;-76
2022/01/06 04:55:36;;;;;;;9.55;1.52;;;;;;;-0.19;53.43;101399.25;5028337;28;20096;-76
2022/01/06 04:58:02;;;;;;;9.27;1.58;;;;;;;-0.21;53.42;101400.97;5030390;28;20049;-74
2022/01/06 05:00:27;;;;;;;7.97;0.68;;;;;;;-0.31;53.31;101399.94;5014165;28;20095;-74
2022/01/06 05:02:53;;;;;;;10.15;0.93;;;;;;;-0.37;53.23;101400.75;5026518;28;20504;-74
2022/01/06 05:05:18;;;;;;;7.30;0.50;;;;;;;-0.36;53.17;101402.47;5016489;28;20038;-74
2022/01/06 05:07:44;;;;;;;4.65;0.88;;;;;;;-0.36;53.23;101396.47;5028780;28;20056;-74
2022/01/06 05:10:12;;;;;;;12.35;1.60;;;;;;;-0.28;52.93;101404.25;5027673;28;20033;-75
2022/01/06 05:12:47;;;;;;;6.13;1.38;;;;;;;-0.35;52.64;101398.19;5016939;28;20525;-75
2022/01/06 05:15:13;;;;;;;8.10;0.75;;;;;;;-0.37;52.29;101398.19;5014783;28;20041;-75
2022/01/06 05:17:40;;;;;;;13.90;1.38;;;;;;;-0.17;51.22;101403.59;5016651;28;20377;-75
2022/01/06 05:20:07;;;;;;;17.13;1.05;;;;;;;-0.19;51.04;101402.69;5016425;28;20087;-74
2022/01/06 05:22:33;;;;;;;14.10;1.92;;;;;;;-0.29;51.06;101403.41;5012689;28;20454;-76
2022/01/06 05:24:59;;;;;;;8.68;1.02;;;;;;;-0.28;51.47;101410.28;5010436;28;20045;-76
2022/01/06 05:27:24;;;;;;;11.75;1.90;;;;;;;-0.17;50.83;101403.59;5025200;28;20044;-76
2022/01/06 05:29:51;;;;;;;13.25;1.33;;;;;;;-0.06;50.20;101407.97;5030998;28;20073;-76
2022/01/06 05:32:17;;;;;;;14.20;0.40;;;;;;;-0.04;50.08;101407.16;5027748;28;20044;-74
2022/01/06 05:34:42;;;;;;;6.28;0.80;;;;;;;0.09;49.52;101413.31;5010375;28;20611;-75
2022/01/06 05:37:08;;;;;;;49.75;3.63;;;;;;;0.08;49.21;101414.19;4997557;28;20583;-76
2022/01/06 05:39:33;;;;;;;15.75;1.42;;;;;;;0.04;49.69;101417.53;5026406;28;20607;-75
2022/01/06 05:41:58;;;;;;;10.40;0.60;;;;;;;0.09;49.54;101415.88;5000126;28;20503;-74
2022/01/06 05:44:25;;;;;;;8.98;0.90;;;;;;;0.13;49.20;101417.66;5029593;28;20040;-75
2022/01/06 05:46:51;;;;;;;15.30;1.02;;;;;;;0.03;49.31;101418.38;5012802;28;20068;-76
2022/01/06 05:49:16;;;;;;;12.45;2.28;;;;;;;0.03;50.00;101416.69;5029263;28;20116;-75
2022/01/06 05:51:44;;;;;;;8.55;0.90;;;;;;;0.17;49.85;101424.56;5025792;28;20455;-75
2022/01/06 05:54:10;;;;;;;6.45;0.57;;;;;;;0.24;50.03;101425.50;5017645;28;20040;-75
2022/01/06 05:56:35;;;;;;;19.70;1.33;;;;;;;0.25;49.57;101428.06;5029407;28;20619;-75
2022/01/06 05:59:00;;;;;;;7.32;0.50;;;;;;;0.19;50.08;101433.16;5027109;28;20045;-74
2022/01/06 06:01:26;;;;;;;11.45;0.60;;;;;;;0.35;49.55;101430.78;5028092;28;20033;-75
2022/01/06 06:03:54;;;;;;;14.68;1.30;;;;;;;0.38;49.38;101433.38;4999346;28;20033;-75
2022/01/06 06:06:19;;;;;;;13.10;0.95;;;;;;;0.36;49.66;101441.06;5027952;28;20045;-74
2022/01/06 06:08:44;;;;;;;12.88;0.65;;;;;;;0.48;48.27;101443.78;5014417;28;20144;-75
2022/01/06 06:11:10;;;;;;;10.20;1.08;;;;;;;0.37;48.96;101444.50;5031223;28;20163;-73
2022/01/06 06:13:35;;;;;;;4.72;0.65;;;;;;;0.33;49.28;101440.19;5029145;28;20516;-73
2022/01/06 06:16:06;;;;;;;12.73;0.68;;;;;;;0.34;48.76;101453.03;5022059;28;20029;-73
2022/01/06 06:18:31;;;;;;;4.38;0.82;;;;;;;0.32;48.73;101453.88;5016481;28;20475;-73
2022/01/06 06:20:57;;;;;;;7.25;1.15;;;;;;;0.25;48.25;101458.91;5032570;28;20105;-73
2022/01/06 06:23:22;;;;;;;10.60;1.05;;;;;;;0.17;49.13;101460.56;5033888;28;20586;-73
2022/01/06 06:25:48;;;;;;;5.07;0.57;;;;;;;0.18;48.55;101472.56;5011283;28;20064;-75
2022/01/06 06:28:13;;;;;;;10.98;0.32;;;;;;;0.15;48.75;101466.53;5020184;28;20135;-74
2022/01/06 06:30:39;;;;;;;7.20;0.65;;;;;;;0.12;48.82;101472.47;5020764;28;20037;-74
2022/01/06 06:33:04;;;;;;;13.75;0.60;;;;;;;0.11;48.68;101470.75;5033074;28;20453;-74
2022/01/06 06:35:30;;;;;;;7.35;0.70;;;;;;;0.06;48.66;101478.41;5017296;28;20074;-74
2022/01/06 06:37:56;;;;;;;11.45;0.82;;;;;;;0.01;48.73;101476.59;5013202;28;20044;-75
2022/01/06 06:40:23;;;;;;;13.25;1.05;;;;;;;-0.05;48.36;101485.09;5029734;28;20041;-74
2022/01/06 06:42:51;;;;;;;2.08;0.30;;;;;;;-0.09;49.04;101488.47;5013866;28;20423;-75
2022/01/06 06:45:19;;;;;;;15.57;0.88;;;;;;;-0.15;48.72;101493.50;5014134;28;20064;-75
2022/01/06 06:47:44;;;;;;;8.93;0.95;;;;;;;-0.17;48.90;101501.22;4997969;28;20288;-74
2022/01/06 06:50:12;;;;;;;6.43;1.00;;;;;;;-0.18;49.07;101508.91;4992675;28;20037;-74
2022/01/06 06:52:38;;;;;;;7.60;0.40;;;;;;;-0.23;49.24;101513.97;5029589;28;20065;-73
2022/01/06 06:55:04;;;;;;;7.43;1.08;;;;;;;-0.20;49.59;101526.00;5019818;28;20060;-75
2022/01/06 06:57:29;;;;;;;7.70;1.08;;;;;;;-0.15;49.31;101522.66;5027812;28;20049;-72
2022/01/06 07:00:02;;;;;;;18.88;1.20;;;;;;;-0.21;49.60;101532.00;5003214;28;20037;-73
2022/01/06 07:02:27;;;;;;;2.72;1.30;;;;;;;0.05;48.25;101537.50;5019271;28;20064;-74
2022/01/06 07:04:53;;;;;;;16.70;1.88;;;;;;;0.05;48.33;101542.63;5029902;28;20466;-74
2022/01/06 07:07:18;;;;;;;19.38;5.85;;;;;;;0.09;48.13;101544.41;5027743;28;20041;-74
2022/01/06 07:09:44;;;;;;;35.05;7.43;;;;;;;0.17;47.98;101553.09;5019768;28;20029;-74
2022/01/06 07:12:09;;;;;;;6.10;1.77;;;;;;;0.27;47.94;101548.94;5021806;28;20496;-75
2022/01/06 07:14:35;;;;;;;9.70;0.60;;;;;;;0.39;47.98;101550.81;5019477;28;20029;-74
2022/01/06 07:17:03;;;;;;;6.78;0.85;;;;;;;0.45;47.97;101558.59;5012604;28;20134;-75
2022/01/06 07:19:29;;;;;;;3.85;0.60;;;;;;;0.49;47.91;101560.38;5018140;28;20041;-76
2022/01/06 07:21:55;;;;;;;6.97;1.35;;;;;;;0.55;48.02;101565.63;5025224;28;20072;-75
2022/01/06 07:24:20;;;;;;;5.15;0.65;;;;;;;0.49;48.26;101560.38;5029096;28;20117;-76
2022/01/06 07:26:46;;;;;;;4.15;0.60;;;;;;;0.44;48.50;101562.03;5024458;28;20462;-74
2022/01/06 07:29:12;;;;;;;9.07;1.05;;;;;;;0.42;48.81;101566.28;5004004;28;20037;-75
2022/01/06 07:31:37;;;;;;;2.78;0.47;;;;;;;0.47;49.09;101577.50;5029629;28;20035;-74
2022/01/06 07:34:02;;;;;;;7.65;1.45;;;;;;;0.51;48.88;101579.28;5027021;28;20030;-74
2022/01/06 07:36:28;;;;;;;5.63;0.63;;;;;;;0.57;48.63;101581.03;5013156;28;20032;-75
2022/01/06 07:38:54;;;;;;;6.03;0.45;;;;;;;0.56;48.60;101587.91;5028159;28;20102;-76
2022/01/06 07:41:19;;;;;;;10.10;1.25;;;;;;;0.50;48.49;101582.66;5022040;28;20048;-74
2022/01/06 07:43:45;;;;;;;5.50;0.60;;;;;;;0.41;48.85;101591.16;5016292;28;20844;-73
2022/01/06 07:46:11;;;;;;;6.72;0.65;;;;;;;0.28;49.30;101582.41;5032143;28;20043;-73
2022/01/06 07:48:48;;;;;;;6.45;0.95;;;;;;;0.29;49.19;101590.97;5019124;28;20059;-75
2022/01/06 07:51:18;;;;;;;6.97;0.93;;;;;;;0.23;49.36;101599.47;5019782;28;20044;-74
2022/01/06 07:53:43;;;;;;;4.32;0.98;;;;;;;0.20;49.36;101599.41;5028714;28;20586;-76
2022/01/06 07:56:09;;;;;;;6.97;0.95;;;;;;;0.24;49.39;101600.34;5028935;28;20113;-76
2022/01/06 07:58:40;;;;;;;11.77;1.38;;;;;;;0.36;49.78;101605.63;5026824;28;20049;-76
2022/01/06 08:01:06;;;;;;;13.48;1.40;;;;;;;0.48;49.79;101599.81;5032117;28;20036;-76
2022/01/06 08:03:31;;;;;;;4.53;1.17;;;;;;;0.60;49.83;101607.69;5016026;28;20064;-74
2022/01/06 08:05:57;;;;;;;7.25;1.27;;;;;;;0.53;49.93;101608.47;5029493;28;20480;-74
2022/01/06 08:08:22;;;;;;;6.97;0.90;;;;;;;0.63;49.95;101610.28;5028831;28;20053;-73
2022/01/06 08:10:48;;;;;;;5.82;0.52;;;;;;;0.75;49.96;101619.00;5027760;28;20119;-73
2022/01/06 08:13:13;;;;;;;2.83;0.47;;;;;;;0.82;50.04;101620.84;5032056;28;20087;-73
2022/01/06 08:15:38;;;;;;;5.78;0.63;;;;;;;0.88;49.94;101631.19;5016502;28;20026;-73
2022/01/06 08:18:04;;;;;;;9.57;0.90;;;;;;;0.86;50.54;101632.91;5030655;28;20403;-73
2022/01/06 08:20:29;;;;;;;12.43;1.45;;;;;;;0.89;49.76;101640.66;5001245;28;20156;-74
2022/01/06 08:22:55;;;;;;;20.25;1.13;;;;;;;0.78;49.80;101639.66;5018032;28;20047;-74
2022/01/06 08:25:21;;;;;;;9.75;0.80;;;;;;;0.81;49.57;101640.53;5012725;28;20136;-73
2022/01/06 08:27:46;;;;;;;3.53;0.50;;;;;;;0.49;51.00;101647.84;5013696;28;20072;-73
2022/01/06 08:30:12;;;;;;;11.10;0.73;;;;;;;0.95;50.18;101653.59;5028881;28;20041;-73
2022/01/06 08:32:37;;;;;;;9.20;0.40;;;;;;;1.01;49.76;101645.94;5013461;28;20099;-74
2022/01/06 08:35:03;;;;;;;14.57;1.20;;;;;;;1.25;49.43;101645.38;5018505;28;20099;-72
2022/01/06 08:37:29;;;;;;;10.32;1.38;;;;;;;1.30;49.74;101653.13;5029410;28;20069;-73
2022/01/06 08:39:55;;;;;;;7.20;0.70;;;;;;;1.41;49.27;101649.00;5027647;28;20047;-73
2022/01/06 08:42:21;;;;;;;9.07;0.40;;;;;;;1.43;49.58;101647.31;5030751;28;20049;-74
2022/01/06 08:44:47;;;;;;;28.38;7.50;;;;;;;1.51;49.54;101645.69;5015072;28;20063;-75
2022/01/06 08:47:12;;;;;;;17.13;3.53;;;;;;;1.53;49.63;101648.28;5030779;28;20075;-74
2022/01/06 08:49:41;;;;;;;11.13;2.38;;;;;;;1.62;49.34;101645.78;5029031;28;20121;-75
2022/01/06 08:52:07;;;;;;;3.95;0.82;;;;;;;1.70;49.43;101645.84;5019466;28;20392;-74
2022/01/06 08:54:33;;;;;;;5.82;0.35;;;;;;;1.80;49.30;101650.25;5015489;28;20513;-73
2022/01/06 08:56:58;;;;;;;7.88;0.95;;;;;;;1.89;49.22;101652.06;5011279;28;20067;-75
2022/01/06 08:59:27;;;;;;;11.80;0.55;;;;;;;1.97;49.26;101649.53;5026809;28;20024;-73
2022/01/06 09:01:53;;;;;;;3.72;0.55;;;;;;;2.22;49.53;101648.88;5024688;28;20558;-73
2022/01/06 09:04:20;;;;;;;6.18;0.93;;;;;;;2.74;49.02;101651.75;5016093;28;20056;-74
2022/01/06 09:06:52;;;;;;;8.13;0.90;;;;;;;3.26;48.39;101640.78;5027843;28;20041;-74
2022/01/06 09:09:20;;;;;;;9.32;0.30;;;;;;;3.69;48.03;101650.38;5011935;28;20115;-72
2022/01/06 09:11:48;;;;;;;7.82;1.30;;;;;;;3.92;46.51;101643.50;5019281;28;20492;-75
2022/01/06 09:14:17;;;;;;;7.88;0.57;;;;;;;3.80;46.11;101649.50;5026166;28;20112;-74
2022/01/06 09:16:43;;;;;;;7.13;0.77;;;;;;;3.50;46.12;101642.59;5017201;28;20048;-74
2022/01/06 09:19:08;;;;;;;5.68;0.70;;;;;;;3.47;47.73;101649.47;5028460;28;20086;-71
2022/01/06 09:21:34;;;;;;;8.50;0.65;;;;;;;3.32;45.81;101646.00;5027871;28;20491;-72
2022/01/06 09:24:09;;;;;;;6.55;1.15;;;;;;;2.94;46.42;101663.91;5020726;28;20469;-75
2022/01/06 09:26:35;;;;;;;8.75;1.08;;;;;;;3.10;46.98;101657.94;5010704;28;20029;-73
2022/01/06 09:29:06;;;;;;;7.05;1.67;;;;;;;3.37;46.80;101656.34;5018474;28;20048;-72
2022/01/06 09:31:33;;;;;;;8.02;0.88;;;;;;;3.78;46.12;101663.28;5025742;28;20080;-74
2022/01/06 09:33:59;;;;;;;6.07;0.65;;;;;;;3.45;44.40;101654.66;4997133;28;20041;-75
2022/01/06 09:36:27;;;;;;;3.10;0.63;;;;;;;3.49;44.79;101652.91;5026466;28;20491;-73
2022/01/06 09:38:54;;;;;;;12.18;0.90;;;;;;;3.96;45.23;101663.34;5024162;28;20037;-73
2022/01/06 09:41:22;;;;;;;12.18;1.15;;;;;;;3.92;44.08;101661.59;5010370;28;20034;-75
2022/01/06 09:43:51;;;;;;;9.57;0.95;;;;;;;4.39;43.72;101660.72;5025381;28;20647;-74
2022/01/06 09:46:17;;;;;;;12.77;1.33;;;;;;;4.52;42.91;101665.84;5007210;28;20042;-74
2022/01/06 09:48:43;;;;;;;9.95;1.23;;;;;;;4.50;42.54;101662.38;5010795;28;20050;-75
2022/01/06 09:51:10;;;;;;;11.75;0.77;;;;;;;4.96;42.15;101662.31;5030235;28;20107;-74
2022/01/06 09:53:39;;;;;;;10.73;0.77;;;;;;;4.74;41.07;101664.06;5027796;28;20046;-74
2022/01/06 09:56:07;;;;;;;8.00;0.63;;;;;;;5.29;41.11;101670.81;5031420;28;20471;-76
2022/01/06 09:58:33;;;;;;;5.97;0.60;;;;;;;5.20;41.04;101671.69;5028691;28;20040;-74
2022/01/06 10:00:59;;;;;;;10.35;1.02;;;;;;;4.84;41.67;101678.72;5014906;28;20154;-77
2022/01/06 10:03:35;;;;;;;15.18;1.05;;;;;;;4.42;41.64;101683.13;5032059;28;20521;-76
2022/01/06 10:06:21;;;;;;;9.20;0.68;;;;;;;3.85;43.09;101679.69;5030267;28;20036;-76
2022/01/06 10:09:04;;;;;;;7.28;0.55;;;;;;;3.91;43.39;101687.44;5030309;28;20594;-72
2022/01/06 10:11:32;;;;;;;4.93;0.95;;;;;;;3.65;44.65;101695.16;5019641;28;20048;-72
2022/01/06 10:14:06;;;;;;;2.67;0.70;;;;;;;3.54;44.30;101698.59;5030320;28;20071;-73
2022/01/06 10:16:35;;;;;;;12.05;0.55;;;;;;;2.94;45.30;101705.22;5013603;28;20029;-73
2022/01/06 10:19:14;;;;;;;13.43;2.13;;;;;;;3.23;44.84;101707.09;5015594;28;20045;-74
2022/01/06 10:21:56;;;;;;;5.93;1.13;;;;;;;3.26;45.47;101707.09;5031346;28;20452;-75
2022/01/06 10:24:23;;;;;;;7.70;1.20;;;;;;;2.62;46.68;101702.44;5032015;28;20041;-73
2022/01/06 10:27:07;;;;;;;10.13;1.23;;;;;;;2.98;46.36;101707.84;5030952;28;20037;-74
2022/01/06 10:29:41;;;;;;;6.50;1.85;;;;;;;3.03;46.39;101707.00;5028320;28;20051;-72
2022/01/06 10:32:11;;;;;;;11.77;1.52;;;;;;;3.16;46.86;101703.63;5030519;28;20148;-73
2022/01/06 10:34:40;;;;;;;9.90;1.55;;;;;;;3.31;46.41;101695.06;5029878;28;20073;-71
2022/01/06 10:37:38;;;;;;;4.55;1.25;;;;;;;3.27;46.21;101690.72;5029326;28;20053;-74
2022/01/06 10:40:30;;;;;;;10.68;0.80;;;;;;;3.52;46.06;101686.53;5031409;28;20032;-72
2022/01/06 10:43:05;;;;;;;18.35;1.10;;;;;;;2.87;47.00;101693.16;5024933;28;20049;-73
2022/01/06 10:45:31;;;;;;;8.40;1.00;;;;;;;2.63;48.34;101689.56;5031197;28;20600;-76
2022/01/06 10:47:58;;;;;;;17.38;1.38;;;;;;;2.80;47.61;101691.38;5028285;28;20687;-72
2022/01/06 10:50:33;;;;;;;11.85;1.55;;;;;;;2.87;47.55;101688.00;5031022;28;20039;-72
2022/01/06 10:53:08;;;;;;;11.02;2.03;;;;;;;3.06;47.15;101700.09;5018340;28;20121;-73
2022/01/06 10:55:39;;;;;;;10.20;2.60;;;;;;;3.40;47.76;101692.50;5012946;28;20036;-74
2022/01/06 10:58:29;;;;;;;8.88;1.98;;;;;;;3.54;46.92;101677.94;5028901;28;20290;-75
2022/01/06 11:01:01;;;;;;;;;;;;;;;3.71;47.05;101690.88;5029436;28;20455;-75
2022/01/06 11:03:36;;;;;;;6.10;0.95;;;;;;;4.07;46.76;101693.50;5013100;28;19928;-73
2022/01/06 11:06:05;;;;;;;8.32;1.38;;;;;;;4.15;45.69;101681.44;5012174;28;20028;-74
2022/01/06 11:08:35;;;;;;;15.63;1.02;;;;;;;4.41;45.93;101679.69;5029061;28;20048;-74
2022/01/06 11:13:46;;;;;;;12.30;0.98;;;;;;;4.07;46.23;101680.56;5028910;28;20041;-72
2022/01/06 11:16:14;;;;;;;6.97;0.93;;;;;;;4.47;45.28;101678.78;5029076;28;20037;-72
2022/01/06 11:18:57;;;;;;;15.07;1.10;;;;;;;4.17;45.28;101690.06;5017470;28;20037;-72
2022/01/06 11:21:26;;;;;;;9.93;0.65;;;;;;;4.04;46.26;101696.09;5028675;28;20038;-72
2022/01/06 11:24:16;;;;;;;6.40;0.60;;;;;;;4.17;45.84;101697.81;5010164;28;20645;-76
2022/01/06 11:27:03;;;;;;;2.90;0.20;;;;;;;4.16;46.04;101693.50;5027905;28;20645;-71
2022/01/06 11:29:32;;;;;;;6.20;0.40;;;;;;;3.82;47.24;101697.78;5026980;28;20045;-72
2022/01/06 11:31:58;;;;;;;7.22;0.60;;;;;;;3.76;47.10;101694.34;5013805;28;20041;-73
2022/01/06 11:34:30;;;;;;;10.32;0.95;;;;;;;3.78;46.85;101696.91;5018091;28;20540;-72
2022/01/06 11:36:56;;;;;;;8.82;1.17;;;;;;;3.70;47.47;101704.66;5027961;28;20033;-73
2022/01/06 11:39:30;;;;;;;13.93;1.67;;;;;;;3.34;48.81;101715.78;5030474;28;21040;-74
2022/01/06 11:41:58;;;;;;;9.57;1.33;;;;;;;3.80;47.87;101706.38;5006455;28;20029;-72
2022/01/06 11:44:25;;;;;;;6.68;0.70;;;;;;;3.75;47.95;101707.25;5016726;28;21046;-72
2022/01/06 11:46:56;;;;;;;8.07;0.93;;;;;;;4.07;47.57;101709.00;5016608;28;20056;-72